LFRK 301030Z AUTO 10008KT CAVOK 23/10 Q1020 TEMPO 02012KT

ElémentsDécodage
LFRK Station météo située sur l'aérodrome de CAEN Carpiquet
301030Z émis le 30 du mois à 10h30 UTC
AUTO Bulletin édité par un automate
10008KT vent du 100°, 08 noeuds
CAVOK Ceiling And Visibility OK
- Visibilité de 10 Km ou plus
- Pas de nuage au-dessous de 1500m ou au-dessous de l'altitude minimale du secteur la plus élevée (si>1500m) et absence de CB
- pas de temps présent significatif
23/10 température 23°C, point de rosée 10°C
 soit une humidité relative de 44%
Q1020 la pression au niveau de la mer (QNH) est de 1020 hPa
TEMPO fluctuation temporaire prévue
02012KT vent du 020°, 12 noeuds